sensor_id;sensor_type;location;lat;lon;timestamp;temperature;humidity
68556;HTU21D;55544;51.032;5.866;2024-02-04T00:01:19;11.12;95.33
68556;HTU21D;55544;51.032;5.866;2024-02-04T00:03:45;11.11;95.20
68556;HTU21D;55544;51.032;5.866;2024-02-04T00:06:11;11.03;95.62
68556;HTU21D;55544;51.032;5.866;2024-02-04T00:08:36;11.11;95.17
68556;HTU21D;55544;51.032;5.866;2024-02-04T00:11:03;11.13;95.11
68556;HTU21D;55544;51.032;5.866;2024-02-04T00:13:30;11.10;95.37
68556;HTU21D;55544;51.032;5.866;2024-02-04T00:15:56;11.05;95.70
68556;HTU21D;55544;51.032;5.866;2024-02-04T00:18:24;11.01;95.73
68556;HTU21D;55544;51.032;5.866;2024-02-04T00:20:50;11.00;95.88
68556;HTU21D;55544;51.032;5.866;2024-02-04T00:23:16;11.11;95.51
68556;HTU21D;55544;51.032;5.866;2024-02-04T00:25:42;11.02;95.57
68556;HTU21D;55544;51.032;5.866;2024-02-04T00:28:07;11.02;95.47
68556;HTU21D;55544;51.032;5.866;2024-02-04T00:30:37;11.07;95.84
68556;HTU21D;55544;51.032;5.866;2024-02-04T00:33:04;11.04;95.83
68556;HTU21D;55544;51.032;5.866;2024-02-04T00:35:30;11.17;95.45
68556;HTU21D;55544;51.032;5.866;2024-02-04T00:37:56;11.00;95.82
68556;HTU21D;55544;51.032;5.866;2024-02-04T00:40:22;11.05;95.91
68556;HTU21D;55544;51.032;5.866;2024-02-04T00:42:48;11.14;95.94
68556;HTU21D;55544;51.032;5.866;2024-02-04T00:45:14;11.09;96.21
68556;HTU21D;55544;51.032;5.866;2024-02-04T00:47:39;11.03;95.46
68556;HTU21D;55544;51.032;5.866;2024-02-04T00:50:06;11.04;95.91
68556;HTU21D;55544;51.032;5.866;2024-02-04T00:52:32;11.16;95.66
68556;HTU21D;55544;51.032;5.866;2024-02-04T00:54:57;11.12;95.73
68556;HTU21D;55544;51.032;5.866;2024-02-04T00:57:23;11.08;96.05
68556;HTU21D;55544;51.032;5.866;2024-02-04T00:59:49;11.13;95.70
68556;HTU21D;55544;51.032;5.866;2024-02-04T01:02:16;11.15;95.40
68556;HTU21D;55544;51.032;5.866;2024-02-04T01:04:41;11.19;95.73
68556;HTU21D;55544;51.032;5.866;2024-02-04T01:07:07;11.12;95.86
68556;HTU21D;55544;51.032;5.866;2024-02-04T01:09:33;11.16;95.85
68556;HTU21D;55544;51.032;5.866;2024-02-04T01:11:58;11.08;96.26
68556;HTU21D;55544;51.032;5.866;2024-02-04T01:14:24;11.16;96.23
68556;HTU21D;55544;51.032;5.866;2024-02-04T01:16:50;11.12;96.17
68556;HTU21D;55544;51.032;5.866;2024-02-04T01:19:16;11.15;95.98
68556;HTU21D;55544;51.032;5.866;2024-02-04T01:21:41;11.20;96.11
68556;HTU21D;55544;51.032;5.866;2024-02-04T01:24:07;11.18;95.94
68556;HTU21D;55544;51.032;5.866;2024-02-04T01:26:33;11.24;95.68
68556;HTU21D;55544;51.032;5.866;2024-02-04T01:28:58;11.14;96.20
68556;HTU21D;55544;51.032;5.866;2024-02-04T01:31:24;11.24;95.52
68556;HTU21D;55544;51.032;5.866;2024-02-04T01:33:50;11.15;95.99
68556;HTU21D;55544;51.032;5.866;2024-02-04T01:36:16;11.18;96.07
68556;HTU21D;55544;51.032;5.866;2024-02-04T01:38:42;11.19;96.13
68556;HTU21D;55544;51.032;5.866;2024-02-04T01:41:08;11.23;96.20
68556;HTU21D;55544;51.032;5.866;2024-02-04T01:43:34;11.26;95.91
68556;HTU21D;55544;51.032;5.866;2024-02-04T01:45:59;11.24;95.88
68556;HTU21D;55544;51.032;5.866;2024-02-04T01:48:25;11.31;95.39
68556;HTU21D;55544;51.032;5.866;2024-02-04T01:50:54;11.28;95.87
68556;HTU21D;55544;51.032;5.866;2024-02-04T01:53:24;11.20;95.97
68556;HTU21D;55544;51.032;5.866;2024-02-04T01:55:52;11.19;96.13
68556;HTU21D;55544;51.032;5.866;2024-02-04T01:58:18;11.17;96.41
68556;HTU21D;55544;51.032;5.866;2024-02-04T02:00:45;11.19;96.51
68556;HTU21D;55544;51.032;5.866;2024-02-04T02:03:12;11.18;96.67
68556;HTU21D;55544;51.032;5.866;2024-02-04T02:05:40;11.26;96.12
68556;HTU21D;55544;51.032;5.866;2024-02-04T02:08:07;11.14;96.22
68556;HTU21D;55544;51.032;5.866;2024-02-04T02:10:33;11.24;96.18
68556;HTU21D;55544;51.032;5.866;2024-02-04T02:13:11;11.25;96.30
68556;HTU21D;55544;51.032;5.866;2024-02-04T02:15:52;11.32;96.10
68556;HTU21D;55544;51.032;5.866;2024-02-04T02:18:44;11.27;96.37
68556;HTU21D;55544;51.032;5.866;2024-02-04T02:26:49;11.28;96.15
68556;HTU21D;55544;51.032;5.866;2024-02-04T02:29:15;11.28;96.55
68556;HTU21D;55544;51.032;5.866;2024-02-04T02:31:42;11.37;95.72
68556;HTU21D;55544;51.032;5.866;2024-02-04T02:34:09;11.32;95.77
68556;HTU21D;55544;51.032;5.866;2024-02-04T02:39:50;11.26;96.17
68556;HTU21D;55544;51.032;5.866;2024-02-04T02:42:20;11.26;96.47
68556;HTU21D;55544;51.032;5.866;2024-02-04T02:44:47;11.38;96.17
68556;HTU21D;55544;51.032;5.866;2024-02-04T02:47:15;11.38;95.94
68556;HTU21D;55544;51.032;5.866;2024-02-04T02:49:41;11.32;95.97
68556;HTU21D;55544;51.032;5.866;2024-02-04T02:52:07;11.29;96.65
68556;HTU21D;55544;51.032;5.866;2024-02-04T02:54:33;11.39;96.17
68556;HTU21D;55544;51.032;5.866;2024-02-04T02:56:58;11.37;96.31
68556;HTU21D;55544;51.032;5.866;2024-02-04T02:59:24;11.41;95.55
68556;HTU21D;55544;51.032;5.866;2024-02-04T03:01:50;11.43;95.70
68556;HTU21D;55544;51.032;5.866;2024-02-04T03:04:15;11.42;95.91
68556;HTU21D;55544;51.032;5.866;2024-02-04T03:06:41;11.40;95.73
68556;HTU21D;55544;51.032;5.866;2024-02-04T03:09:07;11.48;95.42
68556;HTU21D;55544;51.032;5.866;2024-02-04T03:11:32;11.44;95.68
68556;HTU21D;55544;51.032;5.866;2024-02-04T03:13:58;11.45;95.41
68556;HTU21D;55544;51.032;5.866;2024-02-04T03:16:24;11.44;95.72
68556;HTU21D;55544;51.032;5.866;2024-02-04T03:18:52;11.48;95.45
68556;HTU21D;55544;51.032;5.866;2024-02-04T03:21:18;11.40;95.75
68556;HTU21D;55544;51.032;5.866;2024-02-04T03:23:44;11.45;95.48
68556;HTU21D;55544;51.032;5.866;2024-02-04T03:26:11;11.43;95.30
68556;HTU21D;55544;51.032;5.866;2024-02-04T03:28:37;11.40;95.74
68556;HTU21D;55544;51.032;5.866;2024-02-04T03:31:03;11.44;95.53
68556;HTU21D;55544;51.032;5.866;2024-02-04T03:33:29;11.41;95.91
68556;HTU21D;55544;51.032;5.866;2024-02-04T03:35:55;11.43;95.75
68556;HTU21D;55544;51.032;5.866;2024-02-04T03:38:21;11.38;96.04
68556;HTU21D;55544;51.032;5.866;2024-02-04T03:40:47;11.47;95.54
68556;HTU21D;55544;51.032;5.866;2024-02-04T03:43:15;11.45;95.47
68556;HTU21D;55544;51.032;5.866;2024-02-04T03:45:41;11.44;95.62
68556;HTU21D;55544;51.032;5.866;2024-02-04T03:48:07;11.46;95.81
68556;HTU21D;55544;51.032;5.866;2024-02-04T03:50:33;11.56;94.89
68556;HTU21D;55544;51.032;5.866;2024-02-04T03:52:58;11.52;95.44
68556;HTU21D;55544;51.032;5.866;2024-02-04T03:55:24;11.53;95.46
68556;HTU21D;55544;51.032;5.866;2024-02-04T03:57:51;11.53;94.98
68556;HTU21D;55544;51.032;5.866;2024-02-04T04:00:17;11.60;94.48
68556;HTU21D;55544;51.032;5.866;2024-02-04T04:02:43;11.62;94.43
68556;HTU21D;55544;51.032;5.866;2024-02-04T04:05:12;11.58;94.52
68556;HTU21D;55544;51.032;5.866;2024-02-04T04:07:41;11.52;94.62
68556;HTU21D;55544;51.032;5.866;2024-02-04T04:10:07;11.47;94.90
68556;HTU21D;55544;51.032;5.866;2024-02-04T04:12:32;11.55;94.75
68556;HTU21D;55544;51.032;5.866;2024-02-04T04:14:58;11.52;94.58
68556;HTU21D;55544;51.032;5.866;2024-02-04T04:17:24;11.53;94.78
68556;HTU21D;55544;51.032;5.866;2024-02-04T04:19:50;11.53;94.88
68556;HTU21D;55544;51.032;5.866;2024-02-04T04:22:15;11.52;95.19
68556;HTU21D;55544;51.032;5.866;2024-02-04T04:24:41;11.47;95.25
68556;HTU21D;55544;51.032;5.866;2024-02-04T04:27:07;11.49;95.07
68556;HTU21D;55544;51.032;5.866;2024-02-04T04:29:32;11.48;94.99
68556;HTU21D;55544;51.032;5.866;2024-02-04T04:31:58;11.53;94.51
68556;HTU21D;55544;51.032;5.866;2024-02-04T04:34:24;11.47;94.72
68556;HTU21D;55544;51.032;5.866;2024-02-04T04:36:49;11.57;94.18
68556;HTU21D;55544;51.032;5.866;2024-02-04T04:39:15;11.52;94.42
68556;HTU21D;55544;51.032;5.866;2024-02-04T04:41:44;11.55;94.50
68556;HTU21D;55544;51.032;5.866;2024-02-04T04:44:11;11.59;94.55
68556;HTU21D;55544;51.032;5.866;2024-02-04T04:46:40;11.53;94.88
68556;HTU21D;55544;51.032;5.866;2024-02-04T04:49:06;11.51;94.80
68556;HTU21D;55544;51.032;5.866;2024-02-04T04:51:32;11.59;94.49
68556;HTU21D;55544;51.032;5.866;2024-02-04T04:53:57;11.66;93.83
68556;HTU21D;55544;51.032;5.866;2024-02-04T04:56:23;11.57;94.20
68556;HTU21D;55544;51.032;5.866;2024-02-04T04:58:49;11.64;93.96
68556;HTU21D;55544;51.032;5.866;2024-02-04T05:01:16;11.61;94.25
68556;HTU21D;55544;51.032;5.866;2024-02-04T05:03:42;11.58;93.74
68556;HTU21D;55544;51.032;5.866;2024-02-04T05:06:07;11.59;94.00
68556;HTU21D;55544;51.032;5.866;2024-02-04T05:08:33;11.60;93.98
68556;HTU21D;55544;51.032;5.866;2024-02-04T05:10:59;11.56;94.13
68556;HTU21D;55544;51.032;5.866;2024-02-04T05:13:25;11.53;94.19
68556;HTU21D;55544;51.032;5.866;2024-02-04T05:15:50;11.59;94.01
68556;HTU21D;55544;51.032;5.866;2024-02-04T05:18:16;11.63;93.85
68556;HTU21D;55544;51.032;5.866;2024-02-04T05:20:42;11.55;93.88
68556;HTU21D;55544;51.032;5.866;2024-02-04T05:23:09;11.56;94.02
68556;HTU21D;55544;51.032;5.866;2024-02-04T05:25:34;11.55;93.94
68556;HTU21D;55544;51.032;5.866;2024-02-04T05:28:00;11.45;94.49
68556;HTU21D;55544;51.032;5.866;2024-02-04T05:30:26;11.56;94.07
68556;HTU21D;55544;51.032;5.866;2024-02-04T05:32:51;11.53;94.47
68556;HTU21D;55544;51.032;5.866;2024-02-04T05:35:17;11.52;94.39
68556;HTU21D;55544;51.032;5.866;2024-02-04T05:37:43;11.52;94.01
68556;HTU21D;55544;51.032;5.866;2024-02-04T05:40:09;11.60;94.07
68556;HTU21D;55544;51.032;5.866;2024-02-04T05:42:35;11.56;94.23
68556;HTU21D;55544;51.032;5.866;2024-02-04T05:45:03;11.49;94.51
68556;HTU21D;55544;51.032;5.866;2024-02-04T05:47:29;11.46;94.40
68556;HTU21D;55544;51.032;5.866;2024-02-04T05:49:54;11.56;94.18
68556;HTU21D;55544;51.032;5.866;2024-02-04T05:52:20;11.52;94.12
68556;HTU21D;55544;51.032;5.866;2024-02-04T05:54:46;11.49;94.43
68556;HTU21D;55544;51.032;5.866;2024-02-04T05:57:11;11.46;94.94
68556;HTU21D;55544;51.032;5.866;2024-02-04T05:59:37;11.43;94.51
68556;HTU21D;55544;51.032;5.866;2024-02-04T06:02:04;11.39;95.23
68556;HTU21D;55544;51.032;5.866;2024-02-04T06:04:30;11.43;95.29
68556;HTU21D;55544;51.032;5.866;2024-02-04T06:06:56;11.38;95.27
68556;HTU21D;55544;51.032;5.866;2024-02-04T06:09:21;11.43;95.22
68556;HTU21D;55544;51.032;5.866;2024-02-04T06:11:47;11.45;95.22
68556;HTU21D;55544;51.032;5.866;2024-02-04T06:14:13;11.41;95.19
68556;HTU21D;55544;51.032;5.866;2024-02-04T06:16:39;11.40;95.58
68556;HTU21D;55544;51.032;5.866;2024-02-04T06:19:04;11.38;95.68
68556;HTU21D;55544;51.032;5.866;2024-02-04T06:21:31;11.42;95.52
68556;HTU21D;55544;51.032;5.866;2024-02-04T06:23:56;11.39;95.81
68556;HTU21D;55544;51.032;5.866;2024-02-04T06:26:22;11.38;95.52
68556;HTU21D;55544;51.032;5.866;2024-02-04T06:28:48;11.38;95.63
68556;HTU21D;55544;51.032;5.866;2024-02-04T06:31:14;11.41;95.47
68556;HTU21D;55544;51.032;5.866;2024-02-04T06:33:40;11.37;95.48
68556;HTU21D;55544;51.032;5.866;2024-02-04T06:36:09;11.40;95.38
68556;HTU21D;55544;51.032;5.866;2024-02-04T06:38:36;11.44;95.04
68556;HTU21D;55544;51.032;5.866;2024-02-04T06:41:01;11.44;95.42
68556;HTU21D;55544;51.032;5.866;2024-02-04T06:43:27;11.42;95.38
68556;HTU21D;55544;51.032;5.866;2024-02-04T06:45:53;11.51;95.06
68556;HTU21D;55544;51.032;5.866;2024-02-04T06:48:19;11.48;94.88
68556;HTU21D;55544;51.032;5.866;2024-02-04T06:50:46;11.43;94.88
68556;HTU21D;55544;51.032;5.866;2024-02-04T06:53:16;11.43;94.94
68556;HTU21D;55544;51.032;5.866;2024-02-04T06:55:41;11.44;94.79
68556;HTU21D;55544;51.032;5.866;2024-02-04T06:58:07;11.43;94.89
68556;HTU21D;55544;51.032;5.866;2024-02-04T07:00:33;11.40;94.77
68556;HTU21D;55544;51.032;5.866;2024-02-04T07:02:59;11.45;94.51
68556;HTU21D;55544;51.032;5.866;2024-02-04T07:05:25;11.44;94.48
68556;HTU21D;55544;51.032;5.866;2024-02-04T07:07:50;11.41;95.07
68556;HTU21D;55544;51.032;5.866;2024-02-04T07:10:16;11.38;94.79
68556;HTU21D;55544;51.032;5.866;2024-02-04T07:12:43;11.38;94.88
68556;HTU21D;55544;51.032;5.866;2024-02-04T07:15:09;11.41;95.02
68556;HTU21D;55544;51.032;5.866;2024-02-04T07:17:35;11.43;94.77
68556;HTU21D;55544;51.032;5.866;2024-02-04T07:20:01;11.36;95.14
68556;HTU21D;55544;51.032;5.866;2024-02-04T07:22:28;11.33;95.11
68556;HTU21D;55544;51.032;5.866;2024-02-04T07:24:54;11.37;95.03
68556;HTU21D;55544;51.032;5.866;2024-02-04T07:27:20;11.36;95.39
68556;HTU21D;55544;51.032;5.866;2024-02-04T07:29:45;11.29;95.51
68556;HTU21D;55544;51.032;5.866;2024-02-04T07:32:13;11.41;95.37
68556;HTU21D;55544;51.032;5.866;2024-02-04T07:34:40;11.36;95.17
68556;HTU21D;55544;51.032;5.866;2024-02-04T07:37:06;11.31;95.53
68556;HTU21D;55544;51.032;5.866;2024-02-04T07:39:31;11.31;95.77
68556;HTU21D;55544;51.032;5.866;2024-02-04T07:41:57;11.39;95.41
68556;HTU21D;55544;51.032;5.866;2024-02-04T07:44:27;11.36;95.68
68556;HTU21D;55544;51.032;5.866;2024-02-04T07:46:53;11.41;95.66
68556;HTU21D;55544;51.032;5.866;2024-02-04T07:49:19;11.39;95.25
68556;HTU21D;55544;51.032;5.866;2024-02-04T07:51:44;11.34;95.30
68556;HTU21D;55544;51.032;5.866;2024-02-04T07:54:10;11.36;95.34
68556;HTU21D;55544;51.032;5.866;2024-02-04T07:56:36;11.34;95.34
68556;HTU21D;55544;51.032;5.866;2024-02-04T07:59:02;11.36;95.59
68556;HTU21D;55544;51.032;5.866;2024-02-04T08:01:29;11.34;95.84
68556;HTU21D;55544;51.032;5.866;2024-02-04T08:03:55;11.47;95.20
68556;HTU21D;55544;51.032;5.866;2024-02-04T08:06:21;11.45;95.07
68556;HTU21D;55544;51.032;5.866;2024-02-04T08:08:47;11.46;95.59
68556;HTU21D;55544;51.032;5.866;2024-02-04T08:11:17;11.43;95.30
68556;HTU21D;55544;51.032;5.866;2024-02-04T08:13:44;11.46;95.38
68556;HTU21D;55544;51.032;5.866;2024-02-04T08:16:10;11.48;95.21
68556;HTU21D;55544;51.032;5.866;2024-02-04T08:18:36;11.48;95.43
68556;HTU21D;55544;51.032;5.866;2024-02-04T08:21:02;11.52;94.80
68556;HTU21D;55544;51.032;5.866;2024-02-04T08:23:27;11.57;94.76
68556;HTU21D;55544;51.032;5.866;2024-02-04T08:25:53;11.49;94.72
68556;HTU21D;55544;51.032;5.866;2024-02-04T08:28:19;11.54;94.73
68556;HTU21D;55544;51.032;5.866;2024-02-04T08:30:45;11.52;94.34
68556;HTU21D;55544;51.032;5.866;2024-02-04T08:33:10;11.52;95.08
68556;HTU21D;55544;51.032;5.866;2024-02-04T08:35:36;11.62;94.72
68556;HTU21D;55544;51.032;5.866;2024-02-04T08:38:02;11.56;94.44
68556;HTU21D;55544;51.032;5.866;2024-02-04T08:40:28;11.51;94.27
68556;HTU21D;55544;51.032;5.866;2024-02-04T08:42:53;11.58;94.56
68556;HTU21D;55544;51.032;5.866;2024-02-04T08:45:19;11.63;94.62
68556;HTU21D;55544;51.032;5.866;2024-02-04T08:47:45;11.67;94.21
68556;HTU21D;55544;51.032;5.866;2024-02-04T08:50:11;11.66;94.30
68556;HTU21D;55544;51.032;5.866;2024-02-04T08:52:37;11.62;93.98
68556;HTU21D;55544;51.032;5.866;2024-02-04T08:55:03;11.64;93.93
68556;HTU21D;55544;51.032;5.866;2024-02-04T08:57:30;11.60;94.13
68556;HTU21D;55544;51.032;5.866;2024-02-04T08:59:55;11.72;93.73
68556;HTU21D;55544;51.032;5.866;2024-02-04T09:02:21;11.63;94.17
68556;HTU21D;55544;51.032;5.866;2024-02-04T09:04:47;11.59;94.31
68556;HTU21D;55544;51.032;5.866;2024-02-04T09:07:13;11.66;94.07
68556;HTU21D;55544;51.032;5.866;2024-02-04T09:09:38;11.67;94.08
68556;HTU21D;55544;51.032;5.866;2024-02-04T09:12:05;11.72;93.64
68556;HTU21D;55544;51.032;5.866;2024-02-04T09:14:31;11.74;93.46
68556;HTU21D;55544;51.032;5.866;2024-02-04T09:16:56;11.77;93.42
68556;HTU21D;55544;51.032;5.866;2024-02-04T09:19:22;11.73;93.49
68556;HTU21D;55544;51.032;5.866;2024-02-04T09:21:50;11.68;93.59
68556;HTU21D;55544;51.032;5.866;2024-02-04T09:24:15;11.75;93.59
68556;HTU21D;55544;51.032;5.866;2024-02-04T09:26:41;11.76;93.30
68556;HTU21D;55544;51.032;5.866;2024-02-04T09:29:07;11.86;92.75
68556;HTU21D;55544;51.032;5.866;2024-02-04T09:31:32;11.77;93.11
68556;HTU21D;55544;51.032;5.866;2024-02-04T09:33:58;11.89;92.69
68556;HTU21D;55544;51.032;5.866;2024-02-04T09:36:24;11.84;91.72
68556;HTU21D;55544;51.032;5.866;2024-02-04T09:38:50;11.84;92.20
68556;HTU21D;55544;51.032;5.866;2024-02-04T09:41:16;11.93;92.16
68556;HTU21D;55544;51.032;5.866;2024-02-04T09:43:43;11.85;92.30
68556;HTU21D;55544;51.032;5.866;2024-02-04T09:46:09;11.92;91.63
68556;HTU21D;55544;51.032;5.866;2024-02-04T09:48:38;11.87;91.43
68556;HTU21D;55544;51.032;5.866;2024-02-04T09:51:06;11.85;91.70
68556;HTU21D;55544;51.032;5.866;2024-02-04T09:53:34;11.97;91.50
68556;HTU21D;55544;51.032;5.866;2024-02-04T09:56:04;11.89;92.25
68556;HTU21D;55544;51.032;5.866;2024-02-04T09:58:32;12.01;91.96
68556;HTU21D;55544;51.032;5.866;2024-02-04T10:01:00;11.89;92.08
68556;HTU21D;55544;51.032;5.866;2024-02-04T10:03:26;11.93;92.17
68556;HTU21D;55544;51.032;5.866;2024-02-04T10:05:52;11.87;92.27
68556;HTU21D;55544;51.032;5.866;2024-02-04T10:08:19;11.92;92.05
68556;HTU21D;55544;51.032;5.866;2024-02-04T10:10:46;11.94;91.67
68556;HTU21D;55544;51.032;5.866;2024-02-04T10:13:11;12.02;91.34
68556;HTU21D;55544;51.032;5.866;2024-02-04T10:15:37;11.98;91.56
68556;HTU21D;55544;51.032;5.866;2024-02-04T10:18:04;11.90;91.71
68556;HTU21D;55544;51.032;5.866;2024-02-04T10:20:31;11.89;91.79
68556;HTU21D;55544;51.032;5.866;2024-02-04T10:22:58;12.00;90.82
68556;HTU21D;55544;51.032;5.866;2024-02-04T10:25:23;11.90;91.87
68556;HTU21D;55544;51.032;5.866;2024-02-04T10:27:49;12.02;91.56
68556;HTU21D;55544;51.032;5.866;2024-02-04T10:30:15;12.08;91.40
68556;HTU21D;55544;51.032;5.866;2024-02-04T10:32:41;12.14;91.24
68556;HTU21D;55544;51.032;5.866;2024-02-04T10:35:10;12.11;91.63
68556;HTU21D;55544;51.032;5.866;2024-02-04T10:37:36;12.06;91.40
68556;HTU21D;55544;51.032;5.866;2024-02-04T10:40:02;12.11;91.24
68556;HTU21D;55544;51.032;5.866;2024-02-04T10:42:28;12.13;91.37
68556;HTU21D;55544;51.032;5.866;2024-02-04T10:44:55;12.14;91.27
68556;HTU21D;55544;51.032;5.866;2024-02-04T10:47:25;12.21;90.50
68556;HTU21D;55544;51.032;5.866;2024-02-04T10:49:58;12.15;91.11
68556;HTU21D;55544;51.032;5.866;2024-02-04T10:52:27;12.05;90.92
68556;HTU21D;55544;51.032;5.866;2024-02-04T10:54:53;12.17;90.76
68556;HTU21D;55544;51.032;5.866;2024-02-04T10:57:21;12.08;90.70
68556;HTU21D;55544;51.032;5.866;2024-02-04T10:59:52;12.07;91.04
68556;HTU21D;55544;51.032;5.866;2024-02-04T11:02:19;12.06;91.28
68556;HTU21D;55544;51.032;5.866;2024-02-04T11:04:48;12.11;91.15
68556;HTU21D;55544;51.032;5.866;2024-02-04T11:07:17;12.08;91.15
68556;HTU21D;55544;51.032;5.866;2024-02-04T11:09:46;11.98;91.45
68556;HTU21D;55544;51.032;5.866;2024-02-04T11:12:17;12.10;91.21
68556;HTU21D;55544;51.032;5.866;2024-02-04T11:14:48;12.07;90.95
68556;HTU21D;55544;51.032;5.866;2024-02-04T11:20:20;12.12;90.74
68556;HTU21D;55544;51.032;5.866;2024-02-04T11:23:21;12.18;90.85
68556;HTU21D;55544;51.032;5.866;2024-02-04T11:25:54;12.06;91.33
68556;HTU21D;55544;51.032;5.866;2024-02-04T11:28:22;12.02;91.47
68556;HTU21D;55544;51.032;5.866;2024-02-04T11:30:49;12.08;91.50
68556;HTU21D;55544;51.032;5.866;2024-02-04T11:33:19;11.99;92.14
68556;HTU21D;55544;51.032;5.866;2024-02-04T11:35:45;11.86;92.66
68556;HTU21D;55544;51.032;5.866;2024-02-04T11:38:11;11.84;92.82
68556;HTU21D;55544;51.032;5.866;2024-02-04T11:40:39;11.90;92.84
68556;HTU21D;55544;51.032;5.866;2024-02-04T11:43:10;11.83;92.88
68556;HTU21D;55544;51.032;5.866;2024-02-04T11:45:40;11.77;93.30
68556;HTU21D;55544;51.032;5.866;2024-02-04T11:48:08;11.81;93.19
68556;HTU21D;55544;51.032;5.866;2024-02-04T11:50:36;11.83;93.29
68556;HTU21D;55544;51.032;5.866;2024-02-04T11:53:08;11.85;93.06
68556;HTU21D;55544;51.032;5.866;2024-02-04T11:55:35;11.86;93.31
68556;HTU21D;55544;51.032;5.866;2024-02-04T11:58:05;11.86;92.75
68556;HTU21D;55544;51.032;5.866;2024-02-04T12:00:35;11.88;93.08
68556;HTU21D;55544;51.032;5.866;2024-02-04T12:03:06;11.92;92.79
68556;HTU21D;55544;51.032;5.866;2024-02-04T12:05:35;11.88;92.79
68556;HTU21D;55544;51.032;5.866;2024-02-04T12:08:06;12.03;92.41
68556;HTU21D;55544;51.032;5.866;2024-02-04T12:10:34;11.92;92.51
68556;HTU21D;55544;51.032;5.866;2024-02-04T12:13:05;11.92;92.43
68556;HTU21D;55544;51.032;5.866;2024-02-04T12:15:34;11.98;92.39
68556;HTU21D;55544;51.032;5.866;2024-02-04T12:18:11;11.91;92.45
68556;HTU21D;55544;51.032;5.866;2024-02-04T12:20:38;12.06;91.61
68556;HTU21D;55544;51.032;5.866;2024-02-04T12:23:05;12.00;91.85
68556;HTU21D;55544;51.032;5.866;2024-02-04T12:25:32;12.07;91.36
68556;HTU21D;55544;51.032;5.866;2024-02-04T12:27:58;12.08;91.69
68556;HTU21D;55544;51.032;5.866;2024-02-04T12:30:26;12.10;91.63
68556;HTU21D;55544;51.032;5.866;2024-02-04T12:32:58;12.07;91.30
68556;HTU21D;55544;51.032;5.866;2024-02-04T12:35:25;12.05;91.57
68556;HTU21D;55544;51.032;5.866;2024-02-04T12:37:56;12.04;91.56
68556;HTU21D;55544;51.032;5.866;2024-02-04T12:40:24;12.04;91.45
68556;HTU21D;55544;51.032;5.866;2024-02-04T12:43:02;12.03;90.93
68556;HTU21D;55544;51.032;5.866;2024-02-04T12:45:28;12.02;91.21
68556;HTU21D;55544;51.032;5.866;2024-02-04T12:47:58;12.05;91.64
68556;HTU21D;55544;51.032;5.866;2024-02-04T12:50:25;12.00;92.01
68556;HTU21D;55544;51.032;5.866;2024-02-04T12:53:05;12.15;91.55
68556;HTU21D;55544;51.032;5.866;2024-02-04T12:55:33;12.03;92.24
68556;HTU21D;55544;51.032;5.866;2024-02-04T12:58:02;12.15;91.82
68556;HTU21D;55544;51.032;5.866;2024-02-04T13:00:32;12.20;91.71
68556;HTU21D;55544;51.032;5.866;2024-02-04T13:02:58;12.13;91.36
68556;HTU21D;55544;51.032;5.866;2024-02-04T13:05:25;12.18;91.41
68556;HTU21D;55544;51.032;5.866;2024-02-04T13:07:56;12.32;90.91
68556;HTU21D;55544;51.032;5.866;2024-02-04T13:10:23;12.36;90.70
68556;HTU21D;55544;51.032;5.866;2024-02-04T13:13:02;12.43;90.38
68556;HTU21D;55544;51.032;5.866;2024-02-04T13:15:36;12.37;90.50
68556;HTU21D;55544;51.032;5.866;2024-02-04T13:18:02;12.30;90.81
68556;HTU21D;55544;51.032;5.866;2024-02-04T13:20:28;12.33;91.06
68556;HTU21D;55544;51.032;5.866;2024-02-04T13:22:54;12.28;91.23
68556;HTU21D;55544;51.032;5.866;2024-02-04T13:25:20;12.21;91.43
68556;HTU21D;55544;51.032;5.866;2024-02-04T13:27:48;12.27;91.26
68556;HTU21D;55544;51.032;5.866;2024-02-04T13:30:17;12.33;91.13
68556;HTU21D;55544;51.032;5.866;2024-02-04T13:32:45;12.32;91.13
68556;HTU21D;55544;51.032;5.866;2024-02-04T13:35:11;12.30;90.97
68556;HTU21D;55544;51.032;5.866;2024-02-04T13:37:42;12.32;90.84
68556;HTU21D;55544;51.032;5.866;2024-02-04T13:40:17;12.25;90.77
68556;HTU21D;55544;51.032;5.866;2024-02-04T13:42:44;12.27;90.97
68556;HTU21D;55544;51.032;5.866;2024-02-04T13:45:10;12.21;91.07
68556;HTU21D;55544;51.032;5.866;2024-02-04T13:47:38;12.26;90.98
68556;HTU21D;55544;51.032;5.866;2024-02-04T13:50:05;12.27;90.76
68556;HTU21D;55544;51.032;5.866;2024-02-04T13:52:31;12.27;90.48
68556;HTU21D;55544;51.032;5.866;2024-02-04T13:54:57;12.26;90.90
68556;HTU21D;55544;51.032;5.866;2024-02-04T13:57:22;12.30;90.58
68556;HTU21D;55544;51.032;5.866;2024-02-04T13:59:48;12.25;90.88
68556;HTU21D;55544;51.032;5.866;2024-02-04T14:02:14;12.19;91.08
68556;HTU21D;55544;51.032;5.866;2024-02-04T14:04:40;12.31;90.59
68556;HTU21D;55544;51.032;5.866;2024-02-04T14:07:05;12.26;91.15
68556;HTU21D;55544;51.032;5.866;2024-02-04T14:09:31;12.27;90.66
68556;HTU21D;55544;51.032;5.866;2024-02-04T14:11:57;12.32;90.78
68556;HTU21D;55544;51.032;5.866;2024-02-04T14:14:23;12.19;91.09
68556;HTU21D;55544;51.032;5.866;2024-02-04T14:16:50;12.29;90.88
68556;HTU21D;55544;51.032;5.866;2024-02-04T14:19:16;12.26;90.50
68556;HTU21D;55544;51.032;5.866;2024-02-04T14:21:42;12.28;91.15
68556;HTU21D;55544;51.032;5.866;2024-02-04T14:24:09;12.30;90.74
68556;HTU21D;55544;51.032;5.866;2024-02-04T14:26:35;12.32;90.46
68556;HTU21D;55544;51.032;5.866;2024-02-04T14:29:01;12.32;90.74
68556;HTU21D;55544;51.032;5.866;2024-02-04T14:31:27;12.34;90.71
68556;HTU21D;55544;51.032;5.866;2024-02-04T14:33:53;12.22;91.10
68556;HTU21D;55544;51.032;5.866;2024-02-04T14:36:19;12.31;90.42
68556;HTU21D;55544;51.032;5.866;2024-02-04T14:38:45;12.31;90.67
68556;HTU21D;55544;51.032;5.866;2024-02-04T14:41:11;12.35;90.58
68556;HTU21D;55544;51.032;5.866;2024-02-04T14:43:38;12.32;90.51
68556;HTU21D;55544;51.032;5.866;2024-02-04T14:46:04;12.34;90.34
68556;HTU21D;55544;51.032;5.866;2024-02-04T14:48:30;12.28;90.69
68556;HTU21D;55544;51.032;5.866;2024-02-04T14:50:56;12.27;90.91
68556;HTU21D;55544;51.032;5.866;2024-02-04T14:53:23;12.31;90.55
68556;HTU21D;55544;51.032;5.866;2024-02-04T14:55:49;12.38;90.00
68556;HTU21D;55544;51.032;5.866;2024-02-04T14:58:15;12.32;90.52
68556;HTU21D;55544;51.032;5.866;2024-02-04T15:00:41;12.28;90.37
68556;HTU21D;55544;51.032;5.866;2024-02-04T15:03:06;12.25;90.65
68556;HTU21D;55544;51.032;5.866;2024-02-04T15:05:32;12.26;90.60
68556;HTU21D;55544;51.032;5.866;2024-02-04T15:07:58;12.16;90.96
68556;HTU21D;55544;51.032;5.866;2024-02-04T15:10:24;12.20;91.15
68556;HTU21D;55544;51.032;5.866;2024-02-04T15:12:50;12.21;91.24
68556;HTU21D;55544;51.032;5.866;2024-02-04T15:15:18;12.21;91.05
68556;HTU21D;55544;51.032;5.866;2024-02-04T15:17:44;12.12;91.39
68556;HTU21D;55544;51.032;5.866;2024-02-04T15:20:11;12.18;91.20
68556;HTU21D;55544;51.032;5.866;2024-02-04T15:22:41;12.11;91.48
68556;HTU21D;55544;51.032;5.866;2024-02-04T15:25:08;12.01;91.94